EPKKEPPO

Guest
Details From EPKK - BALICE
To EPPO - LAWICA
Flight Number -
Tags decoded
Created
Modified
Stats Distance 187 nm / 347 km
Max Altitude 0 ft / 0 m
Waypoints 4
Social Downloads 0
Likes 0
Share VATSIM

Download

Looking for another format? Having issues loading an existing format? Contact us
Advertisement - Login to hide

Notes

Requested: EPKK BALOS R236 CZE EPPO Unmatched points: R236

Route

EPKK BALOS CZE EPPO

ID Type Via Altitude Latitude Longitude Leg Dist Tot Dist Heading (true) Name
O EPKK APT - 0 ft / 0 m 50.07782˚ 19.78550˚ - 0 nm - BALICE
BALOS FIX - 0 ft / 0 m 50.27556˚ 19.65833˚ 12 nm 12 nm 338° / 338° -
CZE NDB - 0 ft / 0 m 52.13636˚ 16.72883˚ 156 nm 169 nm 317° / 314° CZEMPIN NDB
O EPPO APT - 0 ft / 0 m 52.42157˚ 16.82355˚ 17 nm 187 nm 11° / 12° LAWICA

Altitude Profile

Advertisement - Login to hide

Weather


0- 5 10 15 20 25 30 35+ Temperature / ° C

Clouds and Precipitation
Forecast for 2018-06-21 18:00 UTC. Updated 4 hours ago

Ground ~20,000 ft ~40,000 ft Winds

EPKK

Details ICAO EPKK (KRK)
Name BALICE
Region Poland
Timezone Europe/Warsaw (UTC+2.0)
Stats Elevation 791 ft / 241 m (AMSL)
Location 50.077821° 19.785503°
Runways 1
Magnetic Variation 5.265° E

METAR

EPKK 211930Z 32022G33KT 9999 FEW040CB BKN060 19/16 Q1010

Decode

TAF

TAF EPKK 211730Z 2118/2218 23016KT 9999 SCT040 BECMG 2118/2121 30014KT TEMPO 2118/2123 4000 TSRA BKN033CB PROB40 TEMPO 2118/2123 VRB22G45KT 2000 TSRAGR BKN020CB TEMPO 2123/2202 32015G25KT 4000 SHRA BKN020CB TEMPO 2216/2218 SHRA BKN020CB

Decode

Departure Runways

ID Width Length Bearing (true) Bearing (mag) Surface Threshold Offset Overrun Length
07 197 ft / 60 m 8,343 ft / 2,543 m 77.75° 72.48° Concrete 0 ft / 0 m 0 ft / 0 m
25 197 ft / 60 m 8,343 ft / 2,543 m 257.77° 252.50° Concrete 784 ft / 239 m 0 ft / 0 m

EPPO

Details ICAO EPPO (POZ)
Name LAWICA
Region Poland
Timezone Europe/Warsaw (UTC+2.0)
Stats Elevation 308 ft / 94 m (AMSL)
Location 52.421566° 16.823549°
Runways 1
Magnetic Variation 4.804° E

METAR

EPPO 211930Z 29015KT 9999 SCT040 14/05 Q1012

Decode

TAF

TAF EPPO 211730Z 2118/2218 30015G25KT 9999 SCT040 TEMPO 2118/2121 30025G45KT 2500 SHRA BKN014CB PROB30 TEMPO 2121/2218 SCT030CB

Decode

Destination Runways

ID Width Length Bearing (true) Bearing (mag) Surface Threshold Offset Overrun Length
11 164 ft / 50 m 8,153 ft / 2,485 m 107.57° 102.77° Asphalt 0 ft / 0 m 0 ft / 0 m
29 164 ft / 50 m 8,153 ft / 2,485 m 287.59° 282.79° Asphalt 0 ft / 0 m 0 ft / 0 m

Approach Navaids

Runway Type Ident Frequency Range Bearing (true) Bearing (mag) Slope Elevation
29 Localiser POZ 110.30 MHz 18 nm / 33 km 287.57° 282.76° - 308 ft / 94 m (AMSL)
29 Glidescope POZ 110.30 MHz 10 nm / 19 km 287.58° 282.78° 3.00° 308 ft / 94 m (AMSL)
29 DME POZ 110.30 MHz 18 nm / 33 km - - - 331 ft / 101 m (AMSL)

Popular Alternatives